createdAt,value
2022-08-04T00:00:15.434Z,0.00
2022-08-04T00:01:15.509Z,0.00
2022-08-04T00:02:15.495Z,0.00
2022-08-04T00:03:15.547Z,0.00
2022-08-04T00:04:15.559Z,0.00
2022-08-04T00:05:15.590Z,0.00
2022-08-04T00:06:15.619Z,0.00
2022-08-04T00:07:15.648Z,0.00
2022-08-04T00:08:15.682Z,0.00
2022-08-04T00:09:15.711Z,0.00
2022-08-04T00:10:15.744Z,0.00
2022-08-04T00:11:15.878Z,0.00
2022-08-04T00:12:15.806Z,0.00
2022-08-04T00:13:15.834Z,0.00
2022-08-04T00:14:15.867Z,0.00
2022-08-04T00:15:16.486Z,0.00
2022-08-04T00:16:15.929Z,0.00
2022-08-04T00:17:15.960Z,0.00
2022-08-04T00:18:15.989Z,0.00
2022-08-04T00:19:16.022Z,0.00
2022-08-04T00:20:16.052Z,0.00
2022-08-04T00:21:16.084Z,0.00
2022-08-04T00:22:16.114Z,0.00
2022-08-04T00:23:16.145Z,0.00
2022-08-04T00:24:16.178Z,0.00
2022-08-04T00:25:16.204Z,0.00
2022-08-04T00:26:16.234Z,0.00
2022-08-04T00:27:16.265Z,0.00
2022-08-04T00:28:16.299Z,0.00
2022-08-04T00:29:16.330Z,0.00
2022-08-04T00:30:23.531Z,0.00
2022-08-04T00:32:34.367Z,0.00
2022-08-04T00:33:20.904Z,0.00
2022-08-04T00:34:20.945Z,0.00
2022-08-04T00:35:20.965Z,0.00
2022-08-04T00:36:20.994Z,0.00
2022-08-04T00:37:21.169Z,0.00
2022-08-04T00:38:21.061Z,0.00
2022-08-04T00:39:21.158Z,0.00
2022-08-04T00:40:21.120Z,0.00
2022-08-04T00:41:21.149Z,0.00
2022-08-04T00:42:21.181Z,0.00
2022-08-04T00:43:21.211Z,0.00
2022-08-04T00:44:23.886Z,0.00
2022-08-04T00:45:21.275Z,0.00
2022-08-04T00:46:21.303Z,0.00
2022-08-04T00:47:21.558Z,0.00
2022-08-04T00:48:21.372Z,0.00
2022-08-04T00:49:21.396Z,0.00
2022-08-04T00:50:21.431Z,0.00
2022-08-04T00:51:21.460Z,0.00
2022-08-04T00:52:30.746Z,0.00
2022-08-04T00:53:21.522Z,0.00
2022-08-04T00:54:21.552Z,0.00
2022-08-04T00:55:21.585Z,0.00
2022-08-04T00:56:21.614Z,0.00
2022-08-04T00:57:33.417Z,0.00
2022-08-04T00:58:21.675Z,0.00
2022-08-04T00:59:21.731Z,0.00
2022-08-04T01:00:21.739Z,0.00
2022-08-04T01:01:21.891Z,0.00
2022-08-04T01:02:21.815Z,0.00
2022-08-04T01:03:21.830Z,0.00
2022-08-04T01:04:22.232Z,0.00
2022-08-04T01:05:21.918Z,0.00
2022-08-04T01:06:21.921Z,0.00
2022-08-04T01:07:22.239Z,0.00
2022-08-04T01:08:21.982Z,0.00
2022-08-04T01:09:22.021Z,0.00
2022-08-04T01:10:22.050Z,0.00
2022-08-04T01:11:22.080Z,0.00
2022-08-04T01:12:22.109Z,0.00
2022-08-04T01:13:22.144Z,0.00
2022-08-04T01:14:22.174Z,0.00
2022-08-04T01:15:22.209Z,0.00
2022-08-04T01:16:22.234Z,0.00
2022-08-04T01:17:22.531Z,0.00
2022-08-04T01:18:22.297Z,0.00
2022-08-04T01:19:22.329Z,0.00
2022-08-04T01:20:22.356Z,0.00
2022-08-04T01:21:22.392Z,0.00
2022-08-04T01:22:22.423Z,0.00
2022-08-04T01:23:22.473Z,0.00
2022-08-04T01:24:22.496Z,0.00
2022-08-04T01:25:22.673Z,0.00
2022-08-04T01:26:43.151Z,0.00
2022-08-04T01:27:22.832Z,0.00
2022-08-04T01:28:22.608Z,0.00
2022-08-04T01:29:22.640Z,0.00
2022-08-04T01:30:22.668Z,0.00
2022-08-04T01:31:22.702Z,0.00
2022-08-04T01:32:26.139Z,0.00
2022-08-04T01:33:22.769Z,0.00
2022-08-04T01:34:22.792Z,0.00
2022-08-04T01:35:47.949Z,0.00
2022-08-04T01:36:22.872Z,0.00
2022-08-04T01:37:23.167Z,0.00
2022-08-04T01:38:22.917Z,0.00
2022-08-04T01:39:23.007Z,0.00
2022-08-04T01:40:22.974Z,0.00
2022-08-04T01:41:32.299Z,0.00
2022-08-04T01:42:31.659Z,0.00
2022-08-04T01:43:23.073Z,0.00
2022-08-04T01:44:23.106Z,0.00
2022-08-04T01:45:23.136Z,0.00
2022-08-04T01:46:23.163Z,0.00
2022-08-04T01:47:23.494Z,0.00
2022-08-04T01:48:23.228Z,0.00
2022-08-04T01:49:23.256Z,0.00
2022-08-04T01:50:23.289Z,0.00
2022-08-04T01:51:23.342Z,0.00
2022-08-04T01:52:23.350Z,0.00
2022-08-04T01:53:23.380Z,0.00
2022-08-04T01:54:23.421Z,0.00
2022-08-04T01:55:23.438Z,0.00
2022-08-04T01:56:23.471Z,0.00
2022-08-04T01:57:36.831Z,0.00
2022-08-04T01:58:23.535Z,0.00
2022-08-04T01:59:23.567Z,0.00
2022-08-04T02:00:23.595Z,0.00
2022-08-04T02:01:23.668Z,0.00
2022-08-04T02:02:23.849Z,0.00
2022-08-04T02:03:23.687Z,0.00
2022-08-04T02:04:23.940Z,0.00
2022-08-04T02:05:23.750Z,0.00
2022-08-04T02:06:23.778Z,0.00
2022-08-04T02:07:23.902Z,0.00
2022-08-04T02:08:23.840Z,0.00
2022-08-04T02:09:23.879Z,0.00
2022-08-04T02:10:23.903Z,0.00
2022-08-04T02:11:23.936Z,0.00
2022-08-04T02:12:23.964Z,0.00
2022-08-04T02:13:24.734Z,0.00
2022-08-04T02:14:24.025Z,0.00
2022-08-04T02:15:24.055Z,0.00
2022-08-04T02:16:24.086Z,0.00
2022-08-04T02:17:24.117Z,0.00
2022-08-04T02:18:24.147Z,0.00
2022-08-04T02:19:24.180Z,0.00
2022-08-04T02:20:24.210Z,0.00
2022-08-04T02:21:24.241Z,0.00
2022-08-04T02:22:24.265Z,0.00
2022-08-04T02:23:24.301Z,0.00
2022-08-04T02:24:24.334Z,0.00
2022-08-04T02:25:24.367Z,0.00
2022-08-04T02:26:24.391Z,0.00
2022-08-04T02:27:24.423Z,0.00
2022-08-04T02:28:24.456Z,0.00
2022-08-04T02:29:25.805Z,0.00
2022-08-04T02:30:24.514Z,0.00
2022-08-04T02:31:24.545Z,0.00
2022-08-04T02:32:24.572Z,0.00
2022-08-04T02:33:24.619Z,0.00
2022-08-04T02:34:24.638Z,0.00
2022-08-04T02:35:24.667Z,0.00
2022-08-04T02:36:24.697Z,0.00
2022-08-04T02:37:24.730Z,0.00
2022-08-04T02:38:25.496Z,0.00
2022-08-04T02:39:24.849Z,0.00
2022-08-04T02:40:24.819Z,0.00
2022-08-04T02:41:24.850Z,0.00
2022-08-04T02:42:24.879Z,0.00
2022-08-04T02:43:50.959Z,0.00
2022-08-04T02:44:24.941Z,0.00
2022-08-04T02:45:24.983Z,0.00
2022-08-04T02:46:25.001Z,0.00
2022-08-04T02:48:29.062Z,0.00
2022-08-04T02:48:31.209Z,0.00
2022-08-04T02:49:25.095Z,0.00
2022-08-04T02:50:28.224Z,0.00
2022-08-04T02:51:25.148Z,0.00
2022-08-04T02:52:25.181Z,0.00
2022-08-04T02:53:25.211Z,0.00
2022-08-04T02:54:32.568Z,0.00
2022-08-04T02:55:25.271Z,0.00
2022-08-04T02:56:25.303Z,0.00
2022-08-04T02:57:25.333Z,0.00
2022-08-04T02:58:25.362Z,0.00
2022-08-04T02:59:25.393Z,0.00
2022-08-04T03:00:25.423Z,0.00
2022-08-04T03:01:25.506Z,0.00
2022-08-04T03:02:25.483Z,0.00
2022-08-04T03:03:25.513Z,0.00
2022-08-04T03:04:25.550Z,0.00
2022-08-04T03:05:25.573Z,0.00
2022-08-04T03:06:25.602Z,0.00
2022-08-04T03:07:25.637Z,0.00
2022-08-04T03:08:25.666Z,0.00
2022-08-04T03:09:25.695Z,0.00
2022-08-04T03:10:25.724Z,0.00
2022-08-04T03:11:25.753Z,0.00
2022-08-04T03:12:25.790Z,0.00
2022-08-04T03:13:25.817Z,4.00
2022-08-04T03:14:25.845Z,4.00
2022-08-04T03:15:25.876Z,0.00
2022-08-04T03:16:30.270Z,0.00
2022-08-04T03:17:25.934Z,4.00
2022-08-04T03:18:25.969Z,4.00
2022-08-04T03:19:25.998Z,4.00
2022-08-04T03:20:26.028Z,4.00
2022-08-04T03:21:26.057Z,4.00
2022-08-04T03:22:26.091Z,4.00
2022-08-04T03:23:26.115Z,8.00
2022-08-04T03:24:26.147Z,8.00
2022-08-04T03:25:26.179Z,8.00
2022-08-04T03:26:26.209Z,8.00
2022-08-04T03:27:26.238Z,8.00
2022-08-04T03:28:26.273Z,12.00
2022-08-04T03:29:37.161Z,12.00
2022-08-04T03:30:26.328Z,16.00
2022-08-04T03:31:26.357Z,20.00
2022-08-04T03:32:26.389Z,20.00
2022-08-04T03:33:26.422Z,24.00
2022-08-04T03:34:26.447Z,28.00
2022-08-04T03:35:26.482Z,32.00
2022-08-04T03:36:31.593Z,36.00
2022-08-04T03:37:26.551Z,44.00
2022-08-04T03:38:26.578Z,48.00
2022-08-04T03:39:26.668Z,56.00
2022-08-04T03:40:26.629Z,64.00
2022-08-04T03:41:51.809Z,72.00
2022-08-04T03:42:26.692Z,76.00
2022-08-04T03:43:58.463Z,84.00
2022-08-04T03:44:26.753Z,84.00
2022-08-04T03:45:26.781Z,92.00
2022-08-04T03:46:26.809Z,100.00
2022-08-04T03:47:26.839Z,108.00
2022-08-04T03:48:26.868Z,120.00
2022-08-04T03:49:26.900Z,128.00
2022-08-04T03:50:26.926Z,140.00
2022-08-04T03:51:35.004Z,148.00
2022-08-04T03:52:26.991Z,156.00
2022-08-04T03:53:27.020Z,164.00
2022-08-04T03:54:27.049Z,176.00
2022-08-04T03:55:27.084Z,188.00
2022-08-04T03:56:27.106Z,200.00
2022-08-04T03:57:27.139Z,212.00
2022-08-04T03:58:33.694Z,224.00
2022-08-04T03:59:27.200Z,236.00
2022-08-04T04:00:27.235Z,248.00
2022-08-04T04:01:27.259Z,260.00
2022-08-04T04:02:27.339Z,276.00
2022-08-04T04:03:28.619Z,296.00
2022-08-04T04:04:27.349Z,316.00
2022-08-04T04:05:27.378Z,340.00
2022-08-04T04:06:27.409Z,368.00
2022-08-04T04:07:35.861Z,400.00
2022-08-04T04:08:27.470Z,428.00
2022-08-04T04:09:28.768Z,456.00
2022-08-04T04:10:28.699Z,488.00
2022-08-04T04:11:27.557Z,520.00
2022-08-04T04:12:27.588Z,568.00
2022-08-04T04:13:27.620Z,616.00
2022-08-04T04:14:27.654Z,660.00
2022-08-04T04:15:27.679Z,712.00
2022-08-04T04:16:27.710Z,776.00
2022-08-04T04:17:27.763Z,844.00
2022-08-04T04:18:27.765Z,928.00
2022-08-04T04:19:27.798Z,996.00
2022-08-04T04:20:27.831Z,1040.00
2022-08-04T04:21:27.860Z,1088.00
2022-08-04T04:22:27.889Z,1156.00
2022-08-04T04:23:27.917Z,1232.00
2022-08-04T04:24:33.785Z,1288.00
2022-08-04T04:25:27.978Z,1352.00
2022-08-04T04:26:28.007Z,1456.00
2022-08-04T04:27:28.038Z,1556.00
2022-08-04T04:28:44.582Z,1692.00
2022-08-04T04:29:28.100Z,1756.00
2022-08-04T04:30:28.130Z,1716.00
2022-08-04T04:31:28.160Z,1696.00
2022-08-04T04:32:28.193Z,1692.00
2022-08-04T04:33:28.221Z,1692.00
2022-08-04T04:34:28.250Z,1724.00
2022-08-04T04:35:28.279Z,1772.00
2022-08-04T04:36:28.312Z,1824.00
2022-08-04T04:37:28.341Z,1940.00
2022-08-04T04:38:28.371Z,2096.00
2022-08-04T04:39:28.485Z,2104.00
2022-08-04T04:40:28.433Z,2296.00
2022-08-04T04:41:28.464Z,2312.00
2022-08-04T04:42:28.492Z,2268.00
2022-08-04T04:43:50.502Z,2380.00
2022-08-04T04:44:30.715Z,2400.00
2022-08-04T04:45:28.579Z,2444.00
2022-08-04T04:46:28.614Z,2772.00
2022-08-04T04:48:07.703Z,2836.00
2022-08-04T04:48:28.679Z,2924.00
2022-08-04T04:49:28.707Z,2912.00
2022-08-04T04:50:33.616Z,2820.00
2022-08-04T04:51:28.767Z,2804.00
2022-08-04T04:52:28.798Z,2720.00
2022-08-04T04:53:28.829Z,2580.00
2022-08-04T04:54:28.859Z,2560.00
2022-08-04T04:55:28.889Z,2544.00
2022-08-04T04:56:28.921Z,2404.00
2022-08-04T04:57:53.991Z,2384.00
2022-08-04T04:58:28.983Z,2396.00
2022-08-04T04:59:29.014Z,2476.00
2022-08-04T05:00:29.045Z,2552.00
2022-08-04T05:01:29.076Z,2584.00
2022-08-04T05:02:29.123Z,2644.00
2022-08-04T05:03:29.152Z,2676.00
2022-08-04T05:04:29.168Z,2732.00
2022-08-04T05:05:29.198Z,2768.00
2022-08-04T05:06:29.231Z,2824.00
2022-08-04T05:07:29.259Z,2864.00
2022-08-04T05:08:42.790Z,2856.00
2022-08-04T05:09:29.319Z,2876.00
2022-08-04T05:10:29.359Z,2964.00
2022-08-04T05:11:29.389Z,3108.00
2022-08-04T05:14:22.823Z,3288.00
2022-08-04T05:14:34.996Z,3868.00
2022-08-04T05:14:36.278Z,3556.00
2022-08-04T05:15:29.511Z,4172.00
2022-08-04T05:16:29.539Z,4412.00
2022-08-04T05:17:29.581Z,4680.00
2022-08-04T05:18:29.602Z,5056.00
2022-08-04T05:19:29.635Z,5408.00
2022-08-04T05:20:29.666Z,4928.00
2022-08-04T05:21:29.699Z,4636.00
2022-08-04T05:22:29.727Z,4712.00
2022-08-04T05:23:29.757Z,4408.00
2022-08-04T05:24:29.787Z,4064.00
2022-08-04T05:25:29.818Z,3952.00
2022-08-04T05:26:29.853Z,3924.00
2022-08-04T05:27:29.882Z,3980.00
2022-08-04T05:28:29.917Z,3800.00
2022-08-04T05:29:31.758Z,3696.00
2022-08-04T05:30:29.974Z,3652.00
2022-08-04T05:31:30.005Z,3588.00
2022-08-04T05:32:30.056Z,3556.00
2022-08-04T05:33:30.071Z,3684.00
2022-08-04T05:34:30.099Z,3444.00
2022-08-04T05:35:52.985Z,3352.00
2022-08-04T05:36:41.100Z,3176.00
2022-08-04T05:37:30.434Z,3104.00
2022-08-04T05:38:30.227Z,3152.00
2022-08-04T05:39:34.265Z,3220.00
2022-08-04T05:40:30.287Z,3372.00
2022-08-04T05:41:32.422Z,3656.00
2022-08-04T05:42:30.350Z,4040.00
2022-08-04T05:43:30.383Z,4584.00
2022-08-04T05:44:30.420Z,5156.00
2022-08-04T05:45:39.216Z,5432.00
2022-08-04T05:46:30.478Z,5560.00
2022-08-04T05:47:30.508Z,6192.00
2022-08-04T05:48:30.536Z,6776.00
2022-08-04T05:49:30.572Z,7788.00
2022-08-04T05:50:30.638Z,7804.00
2022-08-04T05:51:30.634Z,7488.00
2022-08-04T05:52:30.669Z,7392.00
2022-08-04T05:53:30.695Z,7880.00
2022-08-04T05:54:30.729Z,8196.00
2022-08-04T05:55:58.420Z,8748.00
2022-08-04T05:56:30.790Z,8952.00
2022-08-04T05:57:30.824Z,8944.00
2022-08-04T05:58:30.959Z,9496.00
2022-08-04T05:59:30.889Z,9684.00
2022-08-04T06:00:40.803Z,9844.00
2022-08-04T06:01:31.008Z,9856.00
2022-08-04T06:02:30.980Z,12172.00
2022-08-04T06:03:31.016Z,10060.00
2022-08-04T06:04:31.048Z,10268.00
2022-08-04T06:05:31.079Z,11404.00
2022-08-04T06:06:31.110Z,13212.00
2022-08-04T06:07:31.139Z,19040.00
2022-08-04T06:08:31.172Z,18720.00
2022-08-04T06:09:31.206Z,13648.00
2022-08-04T06:10:31.239Z,19584.00
2022-08-04T06:11:31.271Z,20128.00
2022-08-04T06:12:31.305Z,14736.00
2022-08-04T06:13:48.920Z,12348.00
2022-08-04T06:14:31.369Z,16864.00
2022-08-04T06:15:32.024Z,20704.00
2022-08-04T06:16:31.437Z,20384.00
2022-08-04T06:19:56.236Z,9464.00
2022-08-04T06:19:56.528Z,16640.00
2022-08-04T06:20:00.536Z,18528.00
2022-08-04T06:20:32.842Z,14184.00
2022-08-04T06:21:31.610Z,13140.00
2022-08-04T06:22:31.643Z,17504.00
2022-08-04T06:23:31.679Z,19328.00
2022-08-04T06:24:31.707Z,24800.00
2022-08-04T06:25:31.738Z,27072.00
2022-08-04T06:26:31.774Z,25632.00
2022-08-04T06:27:31.806Z,19168.00
2022-08-04T06:28:31.843Z,24992.00
2022-08-04T06:29:31.880Z,17568.00
2022-08-04T06:30:31.915Z,20928.00
2022-08-04T06:32:30.119Z,25856.00
2022-08-04T06:32:35.669Z,21824.00
2022-08-04T06:33:32.018Z,21216.00
2022-08-04T06:34:32.048Z,23232.00
2022-08-04T06:35:32.086Z,30464.00
2022-08-04T06:36:32.125Z,26400.00
2022-08-04T06:37:42.310Z,27744.00
2022-08-04T06:38:32.193Z,26400.00
2022-08-04T06:39:32.261Z,23200.00
2022-08-04T06:40:33.763Z,32512.00
2022-08-04T06:41:32.303Z,32320.00
2022-08-04T06:42:32.339Z,26592.00
2022-08-04T06:43:32.375Z,26496.00
2022-08-04T06:44:32.413Z,28192.00
2022-08-04T06:45:32.444Z,28992.00
2022-08-04T06:46:32.486Z,29280.00
2022-08-04T06:47:32.520Z,25216.00
2022-08-04T06:48:33.482Z,32128.00
2022-08-04T06:49:55.078Z,31520.00
2022-08-04T06:51:28.024Z,29984.00
2022-08-04T06:51:41.008Z,28928.00
2022-08-04T06:52:32.709Z,30624.00
2022-08-04T06:53:32.740Z,33568.00
2022-08-04T06:54:32.781Z,33216.00
2022-08-04T06:55:32.819Z,31296.00
2022-08-04T06:56:32.852Z,30944.00
2022-08-04T06:57:32.890Z,29664.00
2022-08-04T06:58:32.935Z,29408.00
2022-08-04T06:59:32.964Z,31520.00
2022-08-04T07:00:33.003Z,27616.00
2022-08-04T07:01:33.062Z,30272.00
2022-08-04T07:02:33.091Z,38624.00
2022-08-04T07:03:33.120Z,31808.00
2022-08-04T07:04:33.155Z,23264.00
2022-08-04T07:05:33.194Z,29184.00
2022-08-04T07:06:33.232Z,34240.00
2022-08-04T07:07:33.961Z,35872.00
2022-08-04T07:08:33.304Z,37952.00
2022-08-04T07:09:33.342Z,39200.00
2022-08-04T07:10:33.380Z,34688.00
2022-08-04T07:11:39.496Z,37632.00
2022-08-04T07:12:40.630Z,34880.00
2022-08-04T07:14:37.974Z,37280.00
2022-08-04T07:15:37.548Z,27520.00
2022-08-04T07:17:42.374Z,9164.00
2022-08-04T07:18:41.619Z,8112.00
2022-08-04T07:20:45.666Z,7088.00
2022-08-04T07:22:24.324Z,6760.00
2022-08-04T07:23:50.207Z,6232.00
2022-08-04T07:24:49.780Z,6128.00
2022-08-04T07:26:42.750Z,6016.00
2022-08-04T07:27:47.829Z,6072.00
2022-08-04T07:29:47.795Z,6032.00
2022-08-04T07:30:46.863Z,5980.00
2022-08-04T07:32:50.914Z,5716.00
2022-08-04T07:34:17.742Z,5592.00
2022-08-04T07:36:05.297Z,5356.00
2022-08-04T07:36:55.929Z,5288.00
2022-08-04T07:38:59.099Z,5136.00
2022-08-04T07:39:59.150Z,5048.00
2022-08-04T07:42:03.598Z,4972.00
2022-08-04T07:43:03.156Z,4976.00
2022-08-04T07:45:07.192Z,4944.00
2022-08-04T07:46:07.225Z,4920.00
2022-08-04T07:48:11.739Z,4976.00
2022-08-04T07:49:11.287Z,5120.00
2022-08-04T07:51:15.800Z,5452.00
2022-08-04T07:52:15.368Z,5688.00
2022-08-04T07:54:19.416Z,5968.00
2022-08-04T07:55:19.443Z,5876.00
2022-08-04T07:57:19.247Z,5528.00
2022-08-04T07:58:13.451Z,5316.00
2022-08-04T08:00:17.505Z,5048.00
2022-08-04T08:01:17.526Z,5060.00
2022-08-04T08:03:22.118Z,5280.00
2022-08-04T08:04:21.597Z,5320.00
2022-08-04T08:06:31.692Z,5200.00
2022-08-04T08:07:25.664Z,5048.00
2022-08-04T08:09:30.176Z,4768.00
2022-08-04T08:10:29.738Z,4720.00
2022-08-04T08:12:35.576Z,4648.00
2022-08-04T08:13:33.806Z,4620.00
2022-08-04T08:15:38.321Z,4572.00
2022-08-04T08:16:37.880Z,4532.00
2022-08-04T08:18:45.536Z,4452.00
2022-08-04T08:19:41.951Z,4432.00
2022-08-04T08:21:59.241Z,4408.00
2022-08-04T08:22:46.028Z,4388.00
2022-08-04T08:24:50.072Z,4328.00
2022-08-04T08:25:50.102Z,4312.00
2022-08-04T08:27:56.421Z,4284.00
2022-08-04T08:28:54.183Z,4260.00
2022-08-04T08:30:59.039Z,4176.00
2022-08-04T08:32:02.685Z,4156.00
2022-08-04T08:34:02.763Z,4104.00
2022-08-04T08:35:02.340Z,4076.00
2022-08-04T08:36:55.302Z,3988.00
2022-08-04T08:37:55.327Z,3988.00
2022-08-04T08:40:00.687Z,4096.00
2022-08-04T08:40:59.883Z,4200.00
2022-08-04T08:41:59.920Z,4276.00
2022-08-04T08:42:59.956Z,4328.00
2022-08-04T08:44:06.845Z,4368.00
2022-08-04T08:45:00.026Z,4248.00
2022-08-04T08:46:00.074Z,4256.00
2022-08-04T08:47:00.094Z,4288.00
2022-08-04T08:48:06.408Z,4264.00
2022-08-04T08:49:00.170Z,4208.00
2022-08-04T08:50:04.054Z,4212.00
2022-08-04T08:51:00.243Z,4140.00
2022-08-04T08:52:00.279Z,4272.00
2022-08-04T08:53:02.687Z,4416.00
2022-08-04T08:54:00.348Z,4480.00
2022-08-04T08:55:00.417Z,4452.00
2022-08-04T08:56:00.419Z,4400.00
2022-08-04T08:57:00.462Z,4336.00
2022-08-04T08:58:00.813Z,4336.00
2022-08-04T08:59:00.529Z,4364.00
2022-08-04T09:00:00.565Z,4432.00
2022-08-04T09:01:00.601Z,4552.00
2022-08-04T09:02:00.701Z,4628.00
2022-08-04T09:03:04.685Z,4712.00
2022-08-04T09:04:00.708Z,4776.00
2022-08-04T09:05:00.752Z,4820.00
2022-08-04T09:06:00.781Z,4832.00
2022-08-04T09:07:00.818Z,4816.00
2022-08-04T09:08:00.852Z,4768.00
2022-08-04T09:09:00.891Z,4708.00
2022-08-04T09:10:00.926Z,4628.00
2022-08-04T09:11:00.969Z,4560.00
2022-08-04T09:12:00.995Z,4492.00
2022-08-04T09:13:01.035Z,4404.00
2022-08-04T09:14:01.071Z,4336.00
2022-08-04T09:15:01.108Z,4296.00
2022-08-04T09:16:01.140Z,4260.00
2022-08-04T09:17:01.181Z,4256.00
2022-08-04T09:18:01.211Z,4200.00
2022-08-04T09:19:01.251Z,4228.00
2022-08-04T09:20:01.285Z,4236.00
2022-08-04T09:21:01.322Z,4204.00
2022-08-04T09:22:01.365Z,4164.00
2022-08-04T09:23:01.395Z,4132.00
2022-08-04T09:24:01.430Z,4108.00
2022-08-04T09:25:01.478Z,4104.00
2022-08-04T09:26:01.500Z,4100.00
2022-08-04T09:27:01.542Z,4080.00
2022-08-04T09:28:09.184Z,4064.00
2022-08-04T09:29:01.616Z,4076.00
2022-08-04T09:30:01.652Z,4064.00
2022-08-04T09:31:01.685Z,4052.00
2022-08-04T09:32:06.265Z,4056.00
2022-08-04T09:33:01.760Z,4056.00
2022-08-04T09:34:01.799Z,4104.00
2022-08-04T09:35:03.474Z,4152.00
2022-08-04T09:36:01.868Z,4204.00
2022-08-04T09:37:01.905Z,4272.00
2022-08-04T09:38:01.954Z,4356.00
2022-08-04T09:39:02.058Z,4472.00
2022-08-04T09:40:02.020Z,4636.00
2022-08-04T09:41:02.051Z,4876.00
2022-08-04T09:42:02.092Z,5116.00
2022-08-04T09:43:02.125Z,5272.00
2022-08-04T09:44:49.797Z,5372.00
2022-08-04T09:45:02.203Z,5392.00
2022-08-04T09:46:02.235Z,5464.00
2022-08-04T09:47:02.271Z,5592.00
2022-08-04T09:48:02.308Z,5788.00
2022-08-04T09:49:02.346Z,5916.00
2022-08-04T09:50:02.381Z,6056.00
2022-08-04T09:51:02.421Z,6112.00
2022-08-04T09:52:02.456Z,6240.00
2022-08-04T09:53:02.492Z,6148.00
2022-08-04T09:54:02.530Z,5960.00
2022-08-04T09:55:02.570Z,5740.00
2022-08-04T09:56:03.562Z,5564.00
2022-08-04T09:57:02.641Z,5524.00
2022-08-04T09:58:02.678Z,5456.00
2022-08-04T09:59:02.716Z,5316.00
2022-08-04T10:00:02.748Z,5248.00
2022-08-04T10:01:02.787Z,5284.00
2022-08-04T10:02:02.826Z,5408.00
2022-08-04T10:03:02.955Z,5484.00
2022-08-04T10:04:02.899Z,5300.00
2022-08-04T10:05:02.941Z,5112.00
2022-08-04T10:06:02.975Z,5076.00
2022-08-04T10:07:03.015Z,5148.00
2022-08-04T10:08:16.128Z,5204.00
2022-08-04T10:09:03.085Z,5284.00
2022-08-04T10:10:03.120Z,5200.00
2022-08-04T10:11:03.164Z,5036.00
2022-08-04T10:12:03.196Z,5032.00
2022-08-04T10:13:03.236Z,4964.00
2022-08-04T10:14:03.271Z,5032.00
2022-08-04T10:15:03.310Z,4940.00
2022-08-04T10:16:03.349Z,4856.00
2022-08-04T10:17:03.383Z,5052.00
2022-08-04T10:18:03.421Z,4960.00
2022-08-04T10:19:07.964Z,4788.00
2022-08-04T10:20:03.506Z,4548.00
2022-08-04T10:21:10.212Z,4332.00
2022-08-04T10:22:29.479Z,4164.00
2022-08-04T10:23:11.414Z,4016.00
2022-08-04T10:24:03.674Z,4132.00
2022-08-04T10:25:03.682Z,4388.00
2022-08-04T10:26:06.994Z,4592.00
2022-08-04T10:27:03.758Z,4604.00
2022-08-04T10:28:03.795Z,4456.00
2022-08-04T10:29:03.829Z,4268.00
2022-08-04T10:30:03.870Z,4076.00
2022-08-04T10:31:03.952Z,3916.00
2022-08-04T10:32:03.941Z,3784.00
2022-08-04T10:33:03.981Z,3844.00
2022-08-04T10:34:04.029Z,3996.00
2022-08-04T10:35:04.065Z,4232.00
2022-08-04T10:36:04.094Z,4528.00
2022-08-04T10:37:04.133Z,4792.00
2022-08-04T10:38:04.172Z,4848.00
2022-08-04T10:39:04.278Z,4808.00
2022-08-04T10:40:04.329Z,4808.00
2022-08-04T10:41:04.280Z,5008.00
2022-08-04T10:42:04.317Z,5072.00
2022-08-04T10:43:04.355Z,5092.00
2022-08-04T10:44:04.395Z,5068.00
2022-08-04T10:45:04.430Z,5068.00
2022-08-04T10:46:04.469Z,5012.00
2022-08-04T10:47:04.520Z,4924.00
2022-08-04T10:48:04.541Z,4796.00
2022-08-04T10:49:04.584Z,4760.00
2022-08-04T10:50:04.614Z,4748.00
2022-08-04T10:51:04.670Z,4696.00
2022-08-04T10:52:04.691Z,4612.00
2022-08-04T10:53:04.743Z,4472.00
2022-08-04T10:54:04.761Z,4344.00
2022-08-04T10:55:04.804Z,4216.00
2022-08-04T10:56:07.352Z,4080.00
2022-08-04T10:57:04.880Z,4020.00
2022-08-04T10:58:04.917Z,4028.00
2022-08-04T10:59:04.955Z,4076.00
2022-08-04T11:00:04.990Z,4112.00
2022-08-04T11:01:05.029Z,4084.00
2022-08-04T11:02:05.071Z,4072.00
2022-08-04T11:03:05.175Z,4028.00
2022-08-04T11:04:05.142Z,4012.00
2022-08-04T11:05:05.180Z,4048.00
2022-08-04T11:06:05.221Z,4168.00
2022-08-04T11:07:05.260Z,4556.00
2022-08-04T11:08:08.852Z,4796.00
2022-08-04T11:09:05.329Z,5032.00
2022-08-04T11:10:05.367Z,5160.00
2022-08-04T11:11:05.400Z,5220.00
2022-08-04T11:12:05.449Z,5376.00
2022-08-04T11:13:05.485Z,5544.00
2022-08-04T11:14:05.516Z,5556.00
2022-08-04T11:15:05.554Z,5524.00
2022-08-04T11:16:05.601Z,5432.00
2022-08-04T11:17:05.630Z,5204.00
2022-08-04T11:18:06.697Z,4912.00
2022-08-04T11:19:05.707Z,4656.00
2022-08-04T11:20:32.098Z,4436.00
2022-08-04T11:21:05.782Z,4228.00
2022-08-04T11:22:06.251Z,4060.00
2022-08-04T11:23:05.856Z,3936.00
2022-08-04T11:24:05.894Z,3844.00
2022-08-04T11:25:05.936Z,3788.00
2022-08-04T11:26:05.973Z,3772.00
2022-08-04T11:27:06.016Z,3788.00
2022-08-04T11:28:06.046Z,3808.00
2022-08-04T11:29:06.087Z,3808.00
2022-08-04T11:30:06.127Z,3832.00
2022-08-04T11:31:06.166Z,3820.00
2022-08-04T11:32:06.197Z,3876.00
2022-08-04T11:33:06.235Z,3968.00
2022-08-04T11:34:06.272Z,4044.00
2022-08-04T11:35:06.315Z,4148.00
2022-08-04T11:36:06.349Z,4420.00
2022-08-04T11:37:23.164Z,4428.00
2022-08-04T11:38:06.426Z,4280.00
2022-08-04T11:39:06.484Z,4224.00
2022-08-04T11:40:06.511Z,4200.00
2022-08-04T11:41:06.539Z,4140.00
2022-08-04T11:42:06.576Z,4352.00
2022-08-04T11:43:06.613Z,4752.00
2022-08-04T11:44:11.897Z,5388.00
2022-08-04T11:45:06.690Z,5964.00
2022-08-04T11:46:06.725Z,6348.00
2022-08-04T11:47:06.763Z,6516.00
2022-08-04T11:48:06.803Z,6708.00
2022-08-04T11:49:06.848Z,7500.00
2022-08-04T11:50:06.877Z,8388.00
2022-08-04T11:51:07.032Z,8888.00
2022-08-04T11:52:06.952Z,9104.00
2022-08-04T11:53:06.989Z,9172.00
2022-08-04T11:54:07.026Z,8860.00
2022-08-04T11:55:07.067Z,8180.00
2022-08-04T11:56:09.584Z,7424.00
2022-08-04T11:57:07.147Z,6380.00
2022-08-04T11:58:07.179Z,5456.00
2022-08-04T11:59:07.216Z,4728.00
2022-08-04T12:00:07.935Z,4384.00
2022-08-04T12:01:07.301Z,4336.00
2022-08-04T12:02:07.373Z,4532.00
2022-08-04T12:03:07.370Z,4556.00
2022-08-04T12:04:07.403Z,4460.00
2022-08-04T12:05:07.444Z,4508.00
2022-08-04T12:06:07.486Z,4476.00
2022-08-04T12:07:30.044Z,4384.00
2022-08-04T12:08:07.556Z,4204.00
2022-08-04T12:09:07.593Z,4200.00
2022-08-04T12:10:07.631Z,4448.00
2022-08-04T12:11:07.668Z,4568.00
2022-08-04T12:12:07.707Z,4760.00
2022-08-04T12:13:07.746Z,4752.00
2022-08-04T12:14:07.789Z,4632.00
2022-08-04T12:15:07.818Z,4660.00
2022-08-04T12:16:07.858Z,4820.00
2022-08-04T12:17:07.895Z,4904.00
2022-08-04T12:18:07.934Z,5008.00
2022-08-04T12:19:07.969Z,5072.00
2022-08-04T12:20:31.818Z,4960.00
2022-08-04T12:21:08.049Z,4996.00
2022-08-04T12:22:08.085Z,5004.00
2022-08-04T12:23:08.120Z,5076.00
2022-08-04T12:24:08.156Z,5312.00
2022-08-04T12:25:08.194Z,5508.00
2022-08-04T12:26:08.244Z,5712.00
2022-08-04T12:27:08.269Z,5472.00
2022-08-04T12:28:08.311Z,5676.00
2022-08-04T12:29:10.882Z,5972.00
2022-08-04T12:31:00.485Z,6432.00
2022-08-04T12:31:11.625Z,7156.00
2022-08-04T12:32:08.461Z,7656.00
2022-08-04T12:33:08.496Z,7840.00
2022-08-04T12:34:08.534Z,7996.00
2022-08-04T12:35:08.583Z,7936.00
2022-08-04T12:36:11.276Z,7828.00
2022-08-04T12:37:08.648Z,7556.00
2022-08-04T12:38:08.686Z,6596.00
2022-08-04T12:39:08.774Z,6172.00
2022-08-04T12:40:21.585Z,5988.00
2022-08-04T12:41:08.801Z,6128.00
2022-08-04T12:42:08.836Z,6736.00
2022-08-04T12:43:08.875Z,8016.00
2022-08-04T12:44:11.272Z,9596.00
2022-08-04T12:45:08.953Z,11164.00
2022-08-04T12:46:09.038Z,11628.00
2022-08-04T12:47:26.570Z,11640.00
2022-08-04T12:48:09.066Z,11484.00
2022-08-04T12:49:09.109Z,10672.00
2022-08-04T12:50:09.140Z,9744.00
2022-08-04T12:52:06.050Z,9376.00
2022-08-04T12:52:09.728Z,10040.00
2022-08-04T12:53:09.264Z,10856.00
2022-08-04T12:54:09.308Z,11264.00
2022-08-04T12:55:09.331Z,11700.00
2022-08-04T12:56:09.434Z,11196.00